Time;durP1;ratioP1;P1;durP2;ratioP2;P2;SDS_P1;SDS_P2;PMS_P1;PMS_P2;Temp;Humidity;BMP_temperature;BMP_pressure;BME280_temperature;BME280_humidity;BME280_pressure;Samples;Min_cycle;Max_cycle;Signal;HPM_P1;HPM_P2
2021/04/14 00:00:41;;;;;;;6.80;4.93;;;;;;;;;;5036320;28;20168;-77
2021/04/14 00:03:08;;;;;;;5.87;5.00;;;;;;;;;;5035875;28;20204;-77
2021/04/14 00:05:36;;;;;;;6.33;4.33;;;;;;;;;;5035929;28;20179;-77
2021/04/14 00:08:01;;;;;;;6.13;5.17;;;;;;;;;;5036686;28;20326;-78
2021/04/14 00:10:28;;;;;;;7.10;4.87;;;;;;;;;;5036093;28;20564;-79
2021/04/14 00:12:53;;;;;;;6.17;5.13;;;;;;;;;;5036085;28;20181;-77
2021/04/14 00:15:21;;;;;;;6.47;4.70;;;;;;;;;;5036285;28;20191;-77
2021/04/14 00:17:46;;;;;;;8.50;5.30;;;;;;;;;;5036224;28;20191;-77
2021/04/14 00:20:12;;;;;;;7.73;5.67;;;;;;;;;;5035566;28;20173;-77
2021/04/14 00:22:37;;;;;;;6.63;5.20;;;;;;;;;;5035476;28;20211;-77
2021/04/14 00:25:03;;;;;;;7.47;5.90;;;;;;;;;;5036236;28;20238;-77
2021/04/14 00:27:29;;;;;;;6.07;5.37;;;;;;;;;;5035456;28;20177;-77
2021/04/14 00:29:54;;;;;;;7.80;5.57;;;;;;;;;;5035156;28;20207;-79
2021/04/14 00:32:19;;;;;;;9.97;6.60;;;;;;;;;;5035462;28;20192;-77
2021/04/14 00:34:45;;;;;;;9.13;6.70;;;;;;;;;;5035333;28;20183;-79
2021/04/14 00:37:10;;;;;;;9.37;7.53;;;;;;;;;;5035657;28;20168;-78
2021/04/14 00:39:35;;;;;;;12.87;8.90;;;;;;;;;;5035563;28;20688;-77
2021/04/14 00:42:02;;;;;;;9.87;7.70;;;;;;;;;;5035294;28;20169;-78
2021/04/14 00:44:27;;;;;;;10.30;8.33;;;;;;;;;;5035543;28;20234;-78
2021/04/14 00:46:52;;;;;;;12.23;7.67;;;;;;;;;;5035174;28;20169;-77
2021/04/14 00:49:18;;;;;;;8.10;6.73;;;;;;;;;;5035875;28;20187;-77
2021/04/14 00:51:44;;;;;;;8.50;7.10;;;;;;;;;;5035579;28;20176;-78
2021/04/14 00:54:10;;;;;;;7.63;6.43;;;;;;;;;;5035169;28;20184;-77
2021/04/14 00:56:35;;;;;;;7.37;5.83;;;;;;;;;;5035503;28;20172;-77
2021/04/14 00:59:00;;;;;;;8.20;5.77;;;;;;;;;;5035233;28;20256;-77
2021/04/14 01:01:26;;;;;;;8.30;6.30;;;;;;;;;;5034881;28;20176;-77
2021/04/14 01:03:52;;;;;;;5.83;4.83;;;;;;;;;;5035329;28;20224;-77
2021/04/14 01:06:20;;;;;;;6.50;4.80;;;;;;;;;;5034707;28;20169;-78
2021/04/14 01:08:45;;;;;;;9.30;5.30;;;;;;;;;;5034294;28;20177;-77
2021/04/14 01:11:12;;;;;;;7.30;4.77;;;;;;;;;;5035001;28;20172;-77
2021/04/14 01:13:37;;;;;;;8.47;5.33;;;;;;;;;;5034836;28;20519;-77
2021/04/14 01:16:03;;;;;;;8.47;6.40;;;;;;;;;;5034912;28;20168;-77
2021/04/14 01:18:33;;;;;;;7.47;6.00;;;;;;;;;;5034892;28;20567;-77
2021/04/14 01:20:59;;;;;;;6.77;5.63;;;;;;;;;;5035141;28;20592;-77
2021/04/14 01:23:26;;;;;;;11.00;7.23;;;;;;;;;;5034400;28;20271;-77
2021/04/14 01:25:52;;;;;;;9.47;6.50;;;;;;;;;;5034699;28;20263;-77
2021/04/14 01:28:22;;;;;;;8.57;6.77;;;;;;;;;;5035126;28;20574;-78
2021/04/14 01:30:48;;;;;;;11.13;7.80;;;;;;;;;;5034880;28;20630;-77
2021/04/14 01:33:15;;;;;;;7.83;5.73;;;;;;;;;;5034411;28;20184;-77
2021/04/14 01:35:41;;;;;;;8.77;6.20;;;;;;;;;;5034487;28;20180;-78
2021/04/14 01:38:06;;;;;;;7.67;6.67;;;;;;;;;;5034166;28;20232;-77
2021/04/14 01:40:32;;;;;;;7.50;6.70;;;;;;;;;;5034177;28;20179;-77
2021/04/14 01:42:58;;;;;;;7.63;6.50;;;;;;;;;;5034267;28;20534;-77
2021/04/14 01:45:29;;;;;;;8.10;6.60;;;;;;;;;;5034619;28;20172;-80
2021/04/14 01:47:54;;;;;;;10.43;7.63;;;;;;;;;;5034108;28;20157;-77
2021/04/14 01:50:20;;;;;;;10.37;7.73;;;;;;;;;;5034550;28;20523;-77
2021/04/14 01:52:45;;;;;;;11.63;8.77;;;;;;;;;;5034044;28;20203;-79
2021/04/14 01:55:11;;;;;;;11.23;8.80;;;;;;;;;;5033981;28;20619;-77
2021/04/14 01:57:36;;;;;;;23.93;14.50;;;;;;;;;;5034228;28;20179;-77
2021/04/14 02:00:07;;;;;;;16.43;12.63;;;;;;;;;;5034129;28;20191;-79
2021/04/14 02:02:32;;;;;;;12.20;10.00;;;;;;;;;;5034093;28;20215;-79
2021/04/14 02:04:58;;;;;;;14.03;10.67;;;;;;;;;;5034006;28;20239;-79
2021/04/14 02:07:23;;;;;;;14.70;10.10;;;;;;;;;;5033836;28;20610;-76
2021/04/14 02:09:48;;;;;;;14.60;9.03;;;;;;;;;;5034672;28;20164;-76
2021/04/14 02:12:14;;;;;;;14.50;10.53;;;;;;;;;;5034190;28;20658;-78
2021/04/14 02:14:39;;;;;;;10.07;7.40;;;;;;;;;;5034066;28;20255;-78
2021/04/14 02:17:05;;;;;;;9.70;6.77;;;;;;;;;;5034260;28;20164;-76
2021/04/14 02:19:30;;;;;;;7.67;5.37;;;;;;;;;;5034215;28;20618;-79
2021/04/14 02:21:55;;;;;;;8.97;6.03;;;;;;;;;;5033907;28;20168;-79
2021/04/14 02:24:21;;;;;;;7.33;5.53;;;;;;;;;;5033494;28;20550;-78
2021/04/14 02:26:46;;;;;;;8.13;5.33;;;;;;;;;;5033820;28;20172;-78
2021/04/14 02:29:12;;;;;;;5.47;4.57;;;;;;;;;;5034164;28;20184;-79
2021/04/14 02:31:37;;;;;;;8.27;5.60;;;;;;;;;;5034022;28;20553;-78
2021/04/14 02:34:08;;;;;;;6.93;5.27;;;;;;;;;;5033497;28;20627;-78
2021/04/14 02:36:33;;;;;;;6.27;4.33;;;;;;;;;;5033711;28;20251;-78
2021/04/14 02:38:58;;;;;;;7.67;4.93;;;;;;;;;;5033462;28;20334;-78
2021/04/14 02:41:24;;;;;;;6.97;4.97;;;;;;;;;;5033701;28;20168;-78
2021/04/14 02:43:50;;;;;;;9.20;6.10;;;;;;;;;;5033315;28;20207;-78
2021/04/14 02:46:15;;;;;;;7.20;5.43;;;;;;;;;;5033927;28;20227;-78
2021/04/14 02:48:41;;;;;;;6.60;5.83;;;;;;;;;;5033778;28;20522;-78
2021/04/14 02:51:07;;;;;;;7.33;6.20;;;;;;;;;;5033855;28;20177;-79
2021/04/14 02:53:32;;;;;;;8.87;7.27;;;;;;;;;;5035776;28;20184;-79
2021/04/14 02:55:58;;;;;;;7.10;6.40;;;;;;;;;;5037752;28;20251;-78
2021/04/14 02:58:23;;;;;;;7.33;5.80;;;;;;;;;;5037817;28;20179;-78
2021/04/14 03:00:48;;;;;;;10.07;7.63;;;;;;;;;;5037870;28;20195;-79
2021/04/14 03:03:14;;;;;;;9.37;7.10;;;;;;;;;;5037375;28;20196;-78
2021/04/14 03:05:39;;;;;;;8.33;5.87;;;;;;;;;;5037117;28;20219;-79
2021/04/14 03:08:04;;;;;;;10.53;7.83;;;;;;;;;;5037077;28;20204;-79
2021/04/14 03:10:30;;;;;;;12.30;8.90;;;;;;;;;;5036957;28;20173;-78
2021/04/14 03:12:56;;;;;;;13.63;8.70;;;;;;;;;;5037478;28;20168;-78
2021/04/14 03:15:23;;;;;;;13.30;7.83;;;;;;;;;;5037095;28;20557;-78
2021/04/14 03:17:48;;;;;;;11.30;7.40;;;;;;;;;;5036838;28;20530;-79
2021/04/14 03:32:25;;;;;;;9.40;7.73;;;;;;;;;;5037127;28;20179;-78
2021/04/14 03:34:51;;;;;;;9.57;7.40;;;;;;;;;;5037494;28;20594;-78
2021/04/14 03:37:16;;;;;;;10.60;7.03;;;;;;;;;;5037176;28;20212;-78
2021/04/14 03:39:41;;;;;;;9.00;7.67;;;;;;;;;;5036548;28;20319;-78
2021/04/14 03:42:07;;;;;;;12.33;8.00;;;;;;;;;;5036723;28;20219;-78
2021/04/14 03:44:33;;;;;;;13.57;9.30;;;;;;;;;;5036540;28;20227;-78
2021/04/14 03:47:00;;;;;;;20.97;13.87;;;;;;;;;;5036311;28;20252;-78
2021/04/14 03:49:25;;;;;;;15.70;11.43;;;;;;;;;;5036194;28;20629;-78
2021/04/14 03:51:51;;;;;;;16.83;11.70;;;;;;;;;;5036474;28;20181;-78
2021/04/14 03:54:16;;;;;;;12.97;9.47;;;;;;;;;;5036572;28;20183;-78
2021/04/14 03:56:41;;;;;;;11.13;7.77;;;;;;;;;;5036512;28;20518;-78
2021/04/14 03:59:06;;;;;;;11.63;8.63;;;;;;;;;;5036099;28;20286;-78
2021/04/14 04:01:32;;;;;;;10.10;7.30;;;;;;;;;;5035040;28;20234;-78
2021/04/14 04:03:58;;;;;;;12.13;8.57;;;;;;;;;;5035574;28;20216;-78
2021/04/14 04:06:24;;;;;;;12.07;8.70;;;;;;;;;;5036157;28;20700;-78
2021/04/14 04:08:50;;;;;;;10.70;7.37;;;;;;;;;;5036193;28;20169;-78
2021/04/14 04:11:17;;;;;;;12.03;7.87;;;;;;;;;;5036713;28;20518;-78
2021/04/14 04:13:43;;;;;;;10.07;6.60;;;;;;;;;;5036145;28;20177;-78
2021/04/14 04:16:08;;;;;;;10.47;7.03;;;;;;;;;;5034541;28;20172;-78
2021/04/14 04:18:36;;;;;;;9.80;7.23;;;;;;;;;;5035933;28;20168;-78
2021/04/14 04:21:01;;;;;;;10.17;6.70;;;;;;;;;;5035823;28;20226;-78
2021/04/14 04:23:27;;;;;;;6.30;5.53;;;;;;;;;;5036315;28;20205;-79
2021/04/14 04:25:52;;;;;;;7.03;4.87;;;;;;;;;;5035608;28;20627;-78
2021/04/14 04:28:21;;;;;;;6.33;5.20;;;;;;;;;;5035801;28;20165;-79
2021/04/14 04:30:47;;;;;;;10.73;5.40;;;;;;;;;;5035829;28;20623;-79
2021/04/14 04:33:12;;;;;;;10.43;6.60;;;;;;;;;;5035679;28;20200;-78
2021/04/14 04:35:37;;;;;;;12.77;8.20;;;;;;;;;;5035639;28;20168;-78
2021/04/14 04:38:03;;;;;;;9.90;6.93;;;;;;;;;;5034999;28;20220;-78
2021/04/14 04:40:29;;;;;;;9.13;6.93;;;;;;;;;;5035563;28;20160;-79
2021/04/14 04:42:54;;;;;;;10.40;7.30;;;;;;;;;;5035168;28;20176;-79
2021/04/14 04:45:21;;;;;;;8.70;5.73;;;;;;;;;;5035438;28;20631;-78
2021/04/14 04:47:46;;;;;;;9.50;6.50;;;;;;;;;;5035782;28;20192;-78
2021/04/14 04:50:12;;;;;;;9.90;7.30;;;;;;;;;;5035736;28;20223;-79
2021/04/14 04:52:38;;;;;;;8.63;7.37;;;;;;;;;;5035054;28;20219;-78
2021/04/14 04:55:04;;;;;;;9.07;6.13;;;;;;;;;;5035011;28;20180;-78
2021/04/14 04:57:29;;;;;;;11.17;6.03;;;;;;;;;;5035763;28;20165;-78
2021/04/14 04:59:55;;;;;;;10.73;7.10;;;;;;;;;;5034982;28;20574;-78
2021/04/14 05:02:21;;;;;;;8.47;6.00;;;;;;;;;;5034915;28;20234;-79
2021/04/14 05:04:46;;;;;;;12.00;7.50;;;;;;;;;;5034803;28;20199;-78
2021/04/14 05:07:11;;;;;;;9.63;5.73;;;;;;;;;;5035445;28;20271;-78
2021/04/14 05:09:37;;;;;;;22.40;7.20;;;;;;;;;;5034836;28;20161;-78
2021/04/14 05:12:02;;;;;;;10.33;5.93;;;;;;;;;;5035047;28;20546;-79
2021/04/14 05:14:28;;;;;;;12.67;6.67;;;;;;;;;;5034895;28;20646;-78
2021/04/14 05:16:53;;;;;;;7.37;5.70;;;;;;;;;;5033961;28;20222;-79
2021/04/14 05:19:18;;;;;;;8.73;5.97;;;;;;;;;;5035170;28;20165;-78
2021/04/14 05:21:44;;;;;;;9.50;7.37;;;;;;;;;;5034872;28;20243;-79
2021/04/14 05:24:10;;;;;;;17.17;11.60;;;;;;;;;;5034592;28;20245;-78
2021/04/14 05:26:35;;;;;;;11.30;8.23;;;;;;;;;;5034772;28;20172;-79
2021/04/14 05:29:01;;;;;;;13.13;7.47;;;;;;;;;;5034722;28;20523;-79
2021/04/14 05:31:29;;;;;;;10.87;7.67;;;;;;;;;;5035168;28;20219;-79
2021/04/14 05:33:55;;;;;;;13.00;7.97;;;;;;;;;;5034324;28;20173;-78
2021/04/14 05:36:20;;;;;;;10.97;7.00;;;;;;;;;;5034256;28;20160;-78
2021/04/14 05:38:46;;;;;;;7.17;5.53;;;;;;;;;;5033993;28;20239;-78
2021/04/14 05:41:11;;;;;;;6.40;4.40;;;;;;;;;;5034646;28;20219;-78
2021/04/14 05:43:38;;;;;;;4.97;4.47;;;;;;;;;;5034385;28;20204;-78
2021/04/14 05:46:06;;;;;;;7.47;5.03;;;;;;;;;;5034658;28;20267;-79
2021/04/14 05:48:31;;;;;;;8.47;4.80;;;;;;;;;;5034030;28;20247;-78
2021/04/14 05:50:59;;;;;;;6.13;4.83;;;;;;;;;;5034335;28;20322;-78
2021/04/14 05:53:25;;;;;;;10.17;6.10;;;;;;;;;;5034211;28;20181;-78
2021/04/14 05:55:50;;;;;;;7.30;5.70;;;;;;;;;;5034277;28;20177;-79
2021/04/14 05:58:16;;;;;;;9.70;6.00;;;;;;;;;;5034311;28;20279;-78
2021/04/14 06:00:41;;;;;;;10.47;7.33;;;;;;;;;;5034633;28;20175;-78
2021/04/14 06:03:06;;;;;;;22.67;15.97;;;;;;;;;;5033872;28;20208;-78
2021/04/14 06:05:32;;;;;;;13.83;12.33;;;;;;;;;;5034059;28;20267;-78
2021/04/14 06:07:57;;;;;;;11.87;9.63;;;;;;;;;;5033810;28;20168;-78
2021/04/14 06:10:23;;;;;;;8.40;7.30;;;;;;;;;;5034127;28;20176;-79
2021/04/14 06:12:50;;;;;;;11.30;7.27;;;;;;;;;;5033999;28;20230;-79
2021/04/14 06:15:17;;;;;;;10.97;7.00;;;;;;;;;;5033771;28;20247;-78
2021/04/14 06:17:43;;;;;;;9.97;8.00;;;;;;;;;;5034004;28;20211;-79
2021/04/14 06:20:09;;;;;;;9.47;8.00;;;;;;;;;;5034518;28;20474;-79
2021/04/14 06:22:36;;;;;;;10.37;7.70;;;;;;;;;;5033909;28;20179;-78
2021/04/14 06:25:03;;;;;;;11.03;8.20;;;;;;;;;;5034038;28;20207;-78
2021/04/14 06:27:35;;;;;;;12.57;8.80;;;;;;;;;;5035334;28;20176;-78
2021/04/14 06:30:01;;;;;;;9.20;7.57;;;;;;;;;;5040940;28;20199;-78
2021/04/14 06:32:26;;;;;;;9.97;7.33;;;;;;;;;;5040377;28;20172;-78
2021/04/14 06:34:53;;;;;;;9.73;7.60;;;;;;;;;;5040211;28;20172;-78
2021/04/14 06:37:18;;;;;;;12.00;8.67;;;;;;;;;;5040414;28;20168;-78
2021/04/14 06:39:48;;;;;;;13.47;8.90;;;;;;;;;;5040444;28;20743;-78
2021/04/14 06:43:10;;;;;;;14.27;8.83;;;;;;;;;;5040583;28;20176;-78
2021/04/14 06:45:30;;;;;;;13.43;9.67;;;;;;;;;;5040133;28;20631;-78
2021/04/14 06:48:14;;;;;;;13.60;9.23;;;;;;;;;;5040327;28;20192;-78
2021/04/14 06:50:44;;;;;;;12.33;9.47;;;;;;;;;;5039916;28;20519;-78
2021/04/14 06:53:09;;;;;;;12.70;9.30;;;;;;;;;;5040312;28;20168;-79
2021/04/14 06:55:47;;;;;;;13.33;10.10;;;;;;;;;;5040534;28;20175;-79
2021/04/14 06:58:15;;;;;;;12.87;11.20;;;;;;;;;;5039828;28;20246;-79
2021/04/14 07:00:42;;;;;;;12.23;10.93;;;;;;;;;;5040149;28;20645;-78
2021/04/14 07:03:18;;;;;;;10.87;9.13;;;;;;;;;;5040087;28;20172;-78
2021/04/14 07:05:45;;;;;;;10.67;7.53;;;;;;;;;;5040130;28;20204;-79
2021/04/14 07:08:17;;;;;;;6.93;5.20;;;;;;;;;;5039876;28;20692;-79
2021/04/14 07:10:43;;;;;;;6.60;5.23;;;;;;;;;;5040242;28;20160;-78
2021/04/14 07:13:10;;;;;;;7.43;5.47;;;;;;;;;;5040307;28;20174;-78
2021/04/14 07:15:35;;;;;;;10.37;6.77;;;;;;;;;;5039986;28;20165;-78
2021/04/14 07:18:07;;;;;;;10.53;6.77;;;;;;;;;;5039721;28;20171;-79
2021/04/14 07:20:33;;;;;;;9.63;7.07;;;;;;;;;;5039792;28;20181;-78
2021/04/14 07:23:02;;;;;;;7.07;5.00;;;;;;;;;;5039875;28;20515;-78
2021/04/14 07:25:41;;;;;;;9.03;5.70;;;;;;;;;;5040028;28;20172;-78
2021/04/14 07:28:14;;;;;;;7.03;4.33;;;;;;;;;;5040334;28;20172;-79
2021/04/14 07:30:49;;;;;;;4.47;3.60;;;;;;;;;;5040302;28;20160;-79
2021/04/14 07:33:22;;;;;;;7.43;4.53;;;;;;;;;;5040352;28;20577;-79
2021/04/14 07:35:56;;;;;;;6.37;4.53;;;;;;;;;;5038571;28;20180;-78
2021/04/14 07:38:33;;;;;;;6.53;5.40;;;;;;;;;;5039866;28;20316;-79
2021/04/14 07:41:11;;;;;;;15.07;9.03;;;;;;;;;;5037168;28;20167;-79
2021/04/14 07:43:36;;;;;;;13.67;7.53;;;;;;;;;;5036473;28;20204;-79
2021/04/14 07:46:03;;;;;;;7.40;4.87;;;;;;;;;;5036665;28;20172;-79
2021/04/14 07:48:33;;;;;;;8.00;5.90;;;;;;;;;;5037164;28;20231;-79
2021/04/14 07:51:00;;;;;;;5.87;4.57;;;;;;;;;;5037664;28;20172;-79
2021/04/14 07:53:29;;;;;;;6.77;4.53;;;;;;;;;;5037026;28;20216;-79
2021/04/14 07:56:02;;;;;;;6.27;4.67;;;;;;;;;;5036723;28;20204;-79
2021/04/14 07:58:27;;;;;;;6.73;4.10;;;;;;;;;;5035159;28;20667;-79
2021/04/14 08:00:53;;;;;;;7.90;4.23;;;;;;;;;;5035804;28;20185;-79
2021/04/14 08:03:26;;;;;;;7.90;4.60;;;;;;;;;;5036812;28;20201;-78
2021/04/14 08:05:52;;;;;;;5.37;4.00;;;;;;;;;;5036556;28;20169;-79
2021/04/14 08:08:21;;;;;;;5.07;4.23;;;;;;;;;;5036724;28;20231;-79
2021/04/14 08:10:54;;;;;;;5.53;4.10;;;;;;;;;;5036154;28;20180;-79
2021/04/14 08:13:25;;;;;;;6.80;4.60;;;;;;;;;;5033352;28;20181;-79
2021/04/14 08:15:51;;;;;;;4.60;4.13;;;;;;;;;;5032461;28;20184;-79
2021/04/14 08:18:16;;;;;;;6.10;4.90;;;;;;;;;;5035181;28;20173;-79
2021/04/14 08:20:43;;;;;;;5.47;3.87;;;;;;;;;;5035388;28;20188;-79
2021/04/14 08:23:12;;;;;;;5.40;4.33;;;;;;;;;;5035429;28;20226;-79
2021/04/14 08:25:41;;;;;;;6.30;4.50;;;;;;;;;;5035870;28;20535;-80
2021/04/14 08:28:06;;;;;;;5.50;4.90;;;;;;;;;;5035476;28;20172;-80
2021/04/14 08:30:32;;;;;;;4.73;4.03;;;;;;;;;;5034003;28;20261;-80
2021/04/14 08:32:59;;;;;;;9.30;5.93;;;;;;;;;;5035459;28;20215;-79
2021/04/14 08:35:36;;;;;;;8.37;5.57;;;;;;;;;;5035131;28;20173;-78
2021/04/14 08:38:08;;;;;;;10.30;5.23;;;;;;;;;;5033945;28;20270;-79
2021/04/14 08:40:35;;;;;;;6.60;4.87;;;;;;;;;;5032311;28;20186;-79
2021/04/14 08:43:11;;;;;;;8.00;5.50;;;;;;;;;;5033972;28;20176;-79
2021/04/14 08:45:41;;;;;;;7.60;4.97;;;;;;;;;;5034121;28;20515;-79
2021/04/14 08:48:14;;;;;;;5.13;3.60;;;;;;;;;;5034117;28;20971;-78
2021/04/14 08:50:49;;;;;;;6.47;5.07;;;;;;;;;;5032821;28;20258;-80
2021/04/14 08:53:16;;;;;;;9.50;4.73;;;;;;;;;;5033024;28;20180;-80
2021/04/14 08:55:42;;;;;;;4.50;3.93;;;;;;;;;;5033421;28;20616;-80
2021/04/14 08:58:07;;;;;;;7.20;4.93;;;;;;;;;;5033805;28;20180;-79
2021/04/14 09:00:32;;;;;;;5.70;5.20;;;;;;;;;;5033738;28;20223;-79
2021/04/14 09:03:02;;;;;;;7.00;5.50;;;;;;;;;;5033609;28;20183;-80
2021/04/14 09:05:29;;;;;;;5.43;4.60;;;;;;;;;;5032415;28;20651;-80
2021/04/14 09:07:56;;;;;;;6.27;5.10;;;;;;;;;;5032630;28;20231;-81
2021/04/14 09:10:39;;;;;;;7.27;6.13;;;;;;;;;;5033048;28;20180;-80
2021/04/14 09:13:05;;;;;;;6.77;5.63;;;;;;;;;;5034675;28;20626;-80
2021/04/14 09:15:31;;;;;;;7.10;5.97;;;;;;;;;;5034721;28;20530;-79
2021/04/14 09:18:03;;;;;;;6.13;5.57;;;;;;;;;;5034888;28;20176;-79
2021/04/14 09:20:30;;;;;;;6.27;5.07;;;;;;;;;;5034509;28;20180;-80
2021/04/14 09:23:00;;;;;;;7.50;5.80;;;;;;;;;;5034156;28;20608;-80
2021/04/14 09:25:38;;;;;;;5.63;4.97;;;;;;;;;;5034652;28;20269;-80
2021/04/14 09:28:04;;;;;;;6.27;5.30;;;;;;;;;;5033801;28;20172;-79
2021/04/14 09:30:30;;;;;;;7.93;6.00;;;;;;;;;;5034511;28;20260;-80
2021/04/14 09:32:57;;;;;;;6.73;5.57;;;;;;;;;;5034495;28;20176;-79
2021/04/14 09:35:25;;;;;;;6.67;5.50;;;;;;;;;;5034255;28;20572;-79
2021/04/14 09:37:52;;;;;;;6.50;4.83;;;;;;;;;;5034285;28;20286;-80
2021/04/14 09:40:29;;;;;;;5.83;4.73;;;;;;;;;;5034156;28;20236;-79
2021/04/14 09:42:54;;;;;;;5.63;5.03;;;;;;;;;;5034473;28;20168;-79
2021/04/14 09:45:30;;;;;;;7.77;5.73;;;;;;;;;;5034347;28;20262;-79
2021/04/14 09:47:57;;;;;;;5.30;4.80;;;;;;;;;;5032791;28;20164;-80
2021/04/14 09:50:34;;;;;;;6.00;4.80;;;;;;;;;;5033834;28;20176;-79
2021/04/14 09:53:15;;;;;;;6.93;4.83;;;;;;;;;;5033883;28;20169;-80
2021/04/14 09:55:52;;;;;;;6.97;5.00;;;;;;;;;;5033822;28;20615;-79
2021/04/14 09:58:17;;;;;;;5.63;5.13;;;;;;;;;;5032814;28;20172;-79
2021/04/14 10:00:44;;;;;;;7.37;6.50;;;;;;;;;;5032427;28;20184;-79
2021/04/14 10:03:12;;;;;;;6.10;5.50;;;;;;;;;;5031396;28;20215;-79
2021/04/14 10:05:38;;;;;;;7.77;6.60;;;;;;;;;;5034013;28;20629;-79
2021/04/14 10:08:04;;;;;;;6.67;5.57;;;;;;;;;;5034082;28;20328;-79
2021/04/14 10:10:29;;;;;;;5.50;4.90;;;;;;;;;;5033943;28;20223;-80
2021/04/14 10:12:56;;;;;;;6.33;4.90;;;;;;;;;;5030990;28;20176;-79
2021/04/14 10:15:32;;;;;;;5.50;5.00;;;;;;;;;;5033984;28;20527;-79
2021/04/14 10:18:01;;;;;;;6.53;5.83;;;;;;;;;;5032641;28;20198;-79
2021/04/14 10:20:30;;;;;;;6.27;4.97;;;;;;;;;;5033471;28;20307;-79
2021/04/14 10:22:55;;;;;;;6.33;5.53;;;;;;;;;;5033870;28;20169;-79
2021/04/14 10:25:22;;;;;;;7.17;5.50;;;;;;;;;;5033606;28;20662;-79
2021/04/14 10:27:50;;;;;;;5.30;4.80;;;;;;;;;;5033487;28;20248;-79
2021/04/14 10:30:18;;;;;;;7.00;5.70;;;;;;;;;;5032449;28;20234;-79
2021/04/14 10:32:43;;;;;;;4.87;4.37;;;;;;;;;;5032290;28;20172;-79
2021/04/14 10:35:10;;;;;;;5.43;4.87;;;;;;;;;;5033759;28;20260;-78
2021/04/14 10:37:43;;;;;;;8.77;6.20;;;;;;;;;;5031201;28;20573;-79
2021/04/14 10:40:10;;;;;;;8.00;6.40;;;;;;;;;;5033249;28;20208;-79
2021/04/14 10:42:35;;;;;;;8.60;7.00;;;;;;;;;;5033176;28;20631;-78
2021/04/14 10:45:05;;;;;;;10.10;7.80;;;;;;;;;;5033223;28;20230;-79
2021/04/14 10:47:33;;;;;;;10.40;8.10;;;;;;;;;;5031942;28;20549;-79
2021/04/14 10:50:06;;;;;;;6.87;6.13;;;;;;;;;;5033583;28;20171;-79
2021/04/14 10:52:32;;;;;;;9.43;7.33;;;;;;;;;;5028460;28;20520;-79
2021/04/14 10:55:03;;;;;;;17.07;13.40;;;;;;;;;;5033596;28;20234;-79
2021/04/14 10:57:34;;;;;;;11.03;9.47;;;;;;;;;;5033120;28;20172;-79
2021/04/14 11:00:01;;;;;;;14.97;7.57;;;;;;;;;;5033174;28;20611;-79
2021/04/14 11:02:28;;;;;;;13.40;8.27;;;;;;;;;;5032344;28;20173;-79
2021/04/14 11:04:54;;;;;;;9.03;6.93;;;;;;;;;;5031580;28;20211;-80
2021/04/14 11:07:22;;;;;;;12.87;10.23;;;;;;;;;;5031469;28;20177;-78
2021/04/14 11:09:49;;;;;;;32.57;19.80;;;;;;;;;;5031534;28;20176;-79
2021/04/14 11:12:16;;;;;;;25.07;12.80;;;;;;;;;;5031099;28;20271;-79
2021/04/14 11:14:48;;;;;;;18.50;8.40;;;;;;;;;;5032537;28;20223;-79
2021/04/14 11:17:21;;;;;;;10.03;7.77;;;;;;;;;;5035227;28;20154;-79
2021/04/14 11:19:58;;;;;;;26.17;16.23;;;;;;;;;;5035299;28;20530;-78
2021/04/14 11:22:23;;;;;;;25.27;17.40;;;;;;;;;;5033990;28;20258;-79
2021/04/14 11:24:50;;;;;;;19.17;11.60;;;;;;;;;;5036348;28;20721;-79
2021/04/14 11:27:20;;;;;;;19.90;11.13;;;;;;;;;;5036414;28;20168;-79
2021/04/14 11:29:46;;;;;;;15.10;11.03;;;;;;;;;;5034576;28;20173;-80
2021/04/14 11:32:16;;;;;;;16.90;12.70;;;;;;;;;;5034299;28;20176;-79
2021/04/14 11:34:52;;;;;;;14.33;12.17;;;;;;;;;;5034077;28;20198;-78
2021/04/14 11:37:19;;;;;;;16.83;10.53;;;;;;;;;;5033854;28;20177;-79
2021/04/14 11:39:52;;;;;;;12.80;7.60;;;;;;;;;;5031290;28;20667;-80
2021/04/14 11:42:18;;;;;;;9.80;7.33;;;;;;;;;;5034374;28;20187;-79
2021/04/14 11:44:51;;;;;;;12.13;8.40;;;;;;;;;;5031854;28;20948;-79
2021/04/14 11:47:29;;;;;;;13.27;9.60;;;;;;;;;;5034581;28;20180;-79
2021/04/14 11:49:55;;;;;;;21.13;14.13;;;;;;;;;;5032873;28;20175;-79
2021/04/14 11:52:20;;;;;;;12.37;8.73;;;;;;;;;;5036082;28;20533;-78
2021/04/14 11:54:46;;;;;;;8.60;6.63;;;;;;;;;;5034545;28;20191;-79
2021/04/14 11:57:11;;;;;;;37.10;14.93;;;;;;;;;;5034152;28;20180;-79
2021/04/14 11:59:37;;;;;;;21.23;10.30;;;;;;;;;;5033691;28;20184;-78
2021/04/14 12:02:13;;;;;;;8.03;5.87;;;;;;;;;;5035527;28;20168;-78
2021/04/14 12:04:39;;;;;;;8.07;5.40;;;;;;;;;;5033701;28;20203;-78
2021/04/14 12:07:05;;;;;;;10.90;5.93;;;;;;;;;;5035169;28;20231;-78
2021/04/14 12:09:30;;;;;;;8.93;6.23;;;;;;;;;;5033260;28;20520;-79
2021/04/14 12:11:56;;;;;;;13.43;8.67;;;;;;;;;;5035528;28;20176;-79
2021/04/14 12:14:22;;;;;;;17.20;10.70;;;;;;;;;;5035068;28;20620;-79
2021/04/14 12:16:47;;;;;;;19.23;10.77;;;;;;;;;;5035125;28;20172;-79
2021/04/14 12:19:12;;;;;;;15.33;8.43;;;;;;;;;;5035464;28;20218;-79
2021/04/14 12:21:43;;;;;;;7.97;5.93;;;;;;;;;;5035822;28;20172;-80
2021/04/14 12:24:08;;;;;;;9.17;6.47;;;;;;;;;;5034576;28;20539;-80
2021/04/14 12:26:34;;;;;;;14.50;9.13;;;;;;;;;;5035528;28;20176;-80
2021/04/14 12:28:59;;;;;;;12.10;7.40;;;;;;;;;;5036106;28;20267;-80
2021/04/14 12:31:24;;;;;;;11.93;7.50;;;;;;;;;;5035495;28;20678;-80
2021/04/14 12:33:50;;;;;;;12.73;7.70;;;;;;;;;;5035154;28;20259;-80
2021/04/14 12:36:15;;;;;;;15.90;9.83;;;;;;;;;;5035224;28;20685;-80
2021/04/14 12:38:40;;;;;;;19.90;10.87;;;;;;;;;;5035310;28;20675;-80
2021/04/14 12:41:06;;;;;;;21.30;11.20;;;;;;;;;;5035636;28;20622;-80
2021/04/14 12:43:31;;;;;;;16.90;10.83;;;;;;;;;;5035289;28;20231;-80
2021/04/14 12:45:56;;;;;;;14.83;9.87;;;;;;;;;;5035293;28;20177;-80
2021/04/14 12:48:23;;;;;;;10.07;7.87;;;;;;;;;;5035494;28;20181;-81
2021/04/14 12:51:07;;;;;;;14.50;9.23;;;;;;;;;;5033830;28;20177;-80
2021/04/14 12:53:34;;;;;;;17.53;11.37;;;;;;;;;;5031379;28;20263;-81
2021/04/14 12:56:01;;;;;;;10.60;7.70;;;;;;;;;;5034237;28;20172;-81
2021/04/14 12:58:29;;;;;;;14.93;10.03;;;;;;;;;;5034830;28;20204;-80
2021/04/14 13:00:54;;;;;;;13.67;10.00;;;;;;;;;;5035009;28;20176;-80
2021/04/14 13:03:28;;;;;;;19.30;12.40;;;;;;;;;;5035017;28;20173;-80
2021/04/14 13:05:57;;;;;;;18.57;11.33;;;;;;;;;;5034890;28;20566;-80
2021/04/14 13:08:24;;;;;;;15.23;11.10;;;;;;;;;;5035111;28;20184;-81
2021/04/14 13:10:50;;;;;;;16.47;11.13;;;;;;;;;;5033919;28;20259;-80
2021/04/14 13:13:15;;;;;;;52.73;38.27;;;;;;;;;;5034635;28;20247;-80
2021/04/14 13:15:50;;;;;;;25.27;22.47;;;;;;;;;;5033916;28;20201;-80
2021/04/14 13:18:15;;;;;;;32.17;14.47;;;;;;;;;;5033910;28;20836;-80
2021/04/14 13:20:41;;;;;;;43.63;17.03;;;;;;;;;;5032819;28;20182;-80
2021/04/14 13:23:09;;;;;;;63.27;21.37;;;;;;;;;;5032389;28;20622;-81
2021/04/14 13:25:55;;;;;;;32.63;14.53;;;;;;;;;;5032618;28;20168;-81
2021/04/14 13:28:30;;;;;;;26.53;12.50;;;;;;;;;;5031828;28;20188;-80
2021/04/14 13:31:00;;;;;;;35.83;15.50;;;;;;;;;;5032745;28;20243;-80
2021/04/14 13:33:34;;;;;;;43.63;16.13;;;;;;;;;;5031228;28;20283;-80
2021/04/14 13:36:15;;;;;;;29.40;14.00;;;;;;;;;;5028494;28;20516;-80
2021/04/14 13:38:42;;;;;;;25.20;11.63;;;;;;;;;;5029382;28;20232;-81
2021/04/14 13:41:14;;;;;;;27.37;13.63;;;;;;;;;;5033449;28;20176;-80
2021/04/14 13:43:48;;;;;;;28.07;13.23;;;;;;;;;;5031149;28;20208;-81
2021/04/14 13:46:19;;;;;;;12.63;7.57;;;;;;;;;;5033066;28;20184;-80
2021/04/14 13:48:54;;;;;;;15.03;7.70;;;;;;;;;;5034154;28;20165;-80
2021/04/14 13:51:22;;;;;;;22.67;11.57;;;;;;;;;;5033608;28;20180;-80
2021/04/14 13:53:48;;;;;;;17.73;9.30;;;;;;;;;;5031902;28;20244;-80
2021/04/14 13:56:16;;;;;;;40.43;16.50;;;;;;;;;;5035360;28;20187;-80
2021/04/14 13:59:02;;;;;;;22.40;12.00;;;;;;;;;;5032624;28;20181;-80
2021/04/14 14:01:29;;;;;;;24.90;12.77;;;;;;;;;;5029984;28;20200;-80
2021/04/14 14:03:54;;;;;;;21.23;10.57;;;;;;;;;;5031711;28;20201;-81
2021/04/14 14:06:46;;;;;;;9.33;7.03;;;;;;;;;;5031948;28;20527;-80
2021/04/14 14:09:14;;;;;;;27.50;12.77;;;;;;;;;;5032013;28;20176;-80
2021/04/14 14:11:42;;;;;;;13.47;8.87;;;;;;;;;;5030712;28;20588;-81
2021/04/14 14:14:09;;;;;;;12.03;8.83;;;;;;;;;;5031629;28;20185;-80
2021/04/14 14:16:40;;;;;;;18.50;10.37;;;;;;;;;;5030626;28;20249;-79
2021/04/14 14:19:26;;;;;;;28.53;13.17;;;;;;;;;;5032195;28;20258;-80
2021/04/14 14:21:51;;;;;;;24.07;11.40;;;;;;;;;;5031312;28;20574;-79
2021/04/14 14:24:17;;;;;;;17.83;10.50;;;;;;;;;;5033575;28;20200;-80
2021/04/14 14:26:48;;;;;;;25.40;12.37;;;;;;;;;;5031765;28;20177;-79
2021/04/14 14:29:13;;;;;;;21.60;10.53;;;;;;;;;;5032075;28;20219;-80
2021/04/14 14:31:38;;;;;;;12.30;8.23;;;;;;;;;;5033618;28;20227;-80
2021/04/14 14:34:04;;;;;;;13.30;9.00;;;;;;;;;;5033456;28;20191;-80
2021/04/14 14:36:33;;;;;;;20.67;11.40;;;;;;;;;;5033469;28;20526;-79
2021/04/14 14:39:10;;;;;;;26.67;13.50;;;;;;;;;;5031743;28;20254;-79
2021/04/14 14:41:38;;;;;;;24.50;13.07;;;;;;;;;;5033695;28;20168;-79
2021/04/14 14:44:05;;;;;;;16.03;9.30;;;;;;;;;;5033666;28;20196;-79
2021/04/14 14:46:33;;;;;;;23.03;11.73;;;;;;;;;;5033335;28;20203;-79
2021/04/14 14:49:01;;;;;;;12.77;8.87;;;;;;;;;;5034712;28;20188;-80